createdAt,value
2018-03-04T00:00:03.188Z,1.5
2018-03-04T00:15:02.317Z,1.5
2018-03-04T00:30:02.627Z,1.5
2018-03-04T00:45:02.882Z,1.5
2018-03-04T01:00:03.161Z,1.5
2018-03-04T01:15:02.471Z,1.5
2018-03-04T01:30:02.856Z,1.4
2018-03-04T01:45:03.197Z,1.4
2018-03-04T02:00:02.430Z,1.4
2018-03-04T02:15:02.789Z,1.4
2018-03-04T02:30:03.126Z,1.4
2018-03-04T02:45:02.428Z,1.4
2018-03-04T03:00:02.676Z,1.3
2018-03-04T03:15:02.987Z,1.3
2018-03-04T03:30:02.465Z,1.2
2018-03-04T03:45:02.793Z,1.2
2018-03-04T04:00:03.091Z,1.2
2018-03-04T04:15:02.724Z,1.2
2018-03-04T04:30:03.129Z,1.2
2018-03-04T04:45:02.462Z,1.2
2018-03-04T05:00:02.729Z,1.2
2018-03-04T05:15:02.994Z,1.2
2018-03-04T05:30:02.316Z,1.2
2018-03-04T05:45:02.674Z,1.2
2018-03-04T06:00:03.039Z,1.1
2018-03-04T06:15:02.364Z,1.1
2018-03-04T06:30:03.033Z,1.1
2018-03-04T06:45:02.350Z,1.1
2018-03-04T07:00:02.563Z,1.1
2018-03-04T07:15:02.932Z,1.1
2018-03-04T07:30:02.327Z,1.1
2018-03-04T07:45:02.688Z,1.1
2018-03-04T08:00:02.940Z,1.1
2018-03-04T08:15:03.225Z,1.1
2018-03-04T08:30:02.597Z,1.1
2018-03-04T08:45:02.908Z,1.2
2018-03-04T09:00:03.158Z,1.2
2018-03-04T09:15:02.474Z,1.2
2018-03-04T09:30:02.823Z,1.2
2018-03-04T09:45:03.188Z,1.3
2018-03-04T10:00:02.643Z,1.3
2018-03-04T10:15:02.892Z,1.4
2018-03-04T10:30:02.278Z,1.4
2018-03-04T10:45:02.574Z,1.4
2018-03-04T11:00:02.932Z,1.5
2018-03-04T11:15:03.214Z,1.6
2018-03-04T11:30:02.644Z,1.6
2018-03-04T11:45:02.897Z,1.7
2018-03-04T12:00:03.192Z,1.8
2018-03-04T12:15:02.441Z,1.8
2018-03-04T12:30:02.755Z,1.9
2018-03-04T12:45:03.000Z,1.9
2018-03-04T13:00:02.319Z,2
2018-03-04T13:15:02.572Z,2
2018-03-04T13:30:02.901Z,2.1
2018-03-04T13:45:03.206Z,2.1
2018-03-04T14:00:02.504Z,2.2
2018-03-04T14:15:02.705Z,2.2
2018-03-04T14:30:03.019Z,2.3
2018-03-04T14:45:02.301Z,2.3
2018-03-04T15:00:02.544Z,2.4
2018-03-04T15:15:02.866Z,2.4
2018-03-04T15:30:03.235Z,2.4
2018-03-04T15:45:02.504Z,2.4
2018-03-04T16:00:02.768Z,2.4
2018-03-04T16:15:02.995Z,2.5
2018-03-04T16:30:02.334Z,2.5
2018-03-04T16:45:02.578Z,2.5
2018-03-04T17:00:02.823Z,2.5
2018-03-04T17:15:03.095Z,2.5
2018-03-04T17:30:02.505Z,2.5
2018-03-04T17:45:02.785Z,2.6
2018-03-04T18:00:03.110Z,2.6
2018-03-04T18:15:02.449Z,2.5
2018-03-04T18:30:02.773Z,2.5
2018-03-04T18:45:03.011Z,2.5
2018-03-04T19:00:02.311Z,2.5
2018-03-04T19:15:02.573Z,2.5
2018-03-04T19:30:02.895Z,2.5
2018-03-04T19:45:03.127Z,2.5
2018-03-04T20:00:02.643Z,2.5
2018-03-04T20:15:02.892Z,2.5
2018-03-04T20:30:02.380Z,2.5
2018-03-04T20:45:02.681Z,2.5
2018-03-04T21:00:02.922Z,2.5
2018-03-04T21:15:03.279Z,2.5
2018-03-04T21:30:02.683Z,2.5
2018-03-04T21:45:03.044Z,2.5
2018-03-04T22:00:02.503Z,2.5
2018-03-04T22:15:02.868Z,2.5
2018-03-04T22:30:02.370Z,2.5
2018-03-04T22:45:02.715Z,2.5
2018-03-04T23:00:03.142Z,2.5
2018-03-04T23:15:02.685Z,2.5
2018-03-04T23:30:03.179Z,2.5
2018-03-04T23:45:02.690Z,2.5
